ePrivacy and GPDR Cookie Consent by Cookie Consent
EmailTwitter


Observations de surface / Royaume-Uni / EGLL (03772)

Régions: Québec | Canada | États-Unis | Europe | France | UK | Ailleurs
Station
Affichage
Infos & localisation pour EGLL (03772) | Aide pour décoder les METARs

Observations prises le 2021-12-07 à 03H20 UTC à LONDON/HEATHROW, UK (EGLL)

Température: 2.0 Celsius

Point de rosée: 0.0 Celsius

Humidité relative: 87%

Facteur vent -2.

Vents: Sud-ouest à 13 km/h ou 7 noeuds.

Pression au niveau moyen de la mer: 100.90 kilopascals.

Visibilité horizontale: 6.21 milles terrestres ou 9.94 kilomètres.

Observation METAR:

EGLL 070320Z AUTO 22007KT 9999 NCD 02/00 Q1009 NOSIG=